Time;durP1;ratioP1;P1;durP2;ratioP2;P2;SDS_P1;SDS_P2;PMS_P1;PMS_P2;Temp;Humidity;BMP_temperature;BMP_pressure;BME280_temperature;BME280_humidity;BME280_pressure;Samples;Min_cycle;Max_cycle;Signal;HPM_P1;HPM_P2
2023/10/04 00:02:07;;;;;;;;;2.00;2.00;;;;;19.72;47.67;102500.81;5018478;28;45477;-73
2023/10/04 00:04:34;;;;;;;;;4.00;2.00;;;;;19.69;48.13;102508.78;5017903;28;45538;-72
2023/10/04 00:07:04;;;;;;;;;0.67;0.67;;;;;19.72;47.80;102506.13;5014903;28;45488;-74
2023/10/04 00:09:31;;;;;;;;;3.00;3.00;;;;;19.72;47.68;102506.13;5030228;28;45458;-73
2023/10/04 00:11:58;;;;;;;;;4.00;2.33;;;;;19.43;47.73;102464.66;5016926;28;45641;-74
2023/10/04 00:14:24;;;;;;;;;4.67;2.00;;;;;19.66;47.62;102504.34;5016585;28;45564;-72
2023/10/04 00:16:50;;;;;;;;;5.67;2.67;;;;;19.64;47.77;102507.91;5018268;28;46304;-73
2023/10/04 00:19:16;;;;;;;;;6.33;2.33;;;;;19.62;47.91;102509.69;5007614;28;45731;-72
2023/10/04 00:21:42;;;;;;;;;3.00;2.67;;;;;19.56;48.11;102496.47;5018586;28;45464;-72
2023/10/04 00:24:09;;;;;;;;;0.00;0.00;;;;;19.46;47.94;102485.91;5008347;28;45621;-73
2023/10/04 00:26:35;;;;;;;;;4.33;2.00;;;;;19.51;47.95;102490.31;5005569;28;45495;-73
2023/10/04 00:29:04;;;;;;;;;1.00;0.33;;;;;19.42;47.72;102481.47;5001398;28;45665;-71
2023/10/04 00:31:31;;;;;;;;;2.00;2.00;;;;;19.45;47.90;102500.06;5011145;28;45506;-72
2023/10/04 00:34:03;;;;;;;;;2.00;2.00;;;;;19.45;48.38;102492.09;5009826;28;45477;-74
2023/10/04 00:36:29;;;;;;;;;3.33;1.00;;;;;19.10;48.49;102444.53;5013789;28;47736;-72
2023/10/04 00:38:55;;;;;;;;;2.67;1.33;;;;;19.21;48.58;102477.19;5014696;28;45540;-70
2023/10/04 00:41:21;;;;;;;;;2.00;1.00;;;;;19.10;48.75;102465.78;5018262;28;45398;-73
2023/10/04 00:43:53;;;;;;;;;0.67;0.00;;;;;19.15;48.56;102481.66;5021414;28;45541;-72
2023/10/04 00:46:20;;;;;;;;;4.00;1.00;;;;;19.24;48.71;102490.47;5020227;28;45333;-73
2023/10/04 00:48:47;;;;;;;;;2.67;2.00;;;;;19.30;48.60;102493.97;5019977;28;45347;-72
2023/10/04 00:51:13;;;;;;;;;1.33;1.00;;;;;19.21;48.79;102479.84;5022470;28;45206;-73
2023/10/04 00:53:39;;;;;;;;;2.00;1.00;;;;;19.24;48.80;102500.19;5021198;28;45426;-73
2023/10/04 00:56:08;;;;;;;;;0.67;0.67;;;;;19.14;49.16;102506.47;5013755;28;46342;-75
2023/10/04 00:58:42;;;;;;;;;1.00;1.00;;;;;18.83;49.15;102478.28;5019527;28;45556;-73
2023/10/04 01:01:08;;;;;;;;;2.00;1.00;;;;;18.95;49.46;102503.03;5020287;28;45549;-72
2023/10/04 01:03:37;;;;;;;;;0.00;0.00;;;;;18.99;49.50;102496.81;5018324;28;45465;-74
2023/10/04 01:06:05;;;;;;;;;2.00;1.00;;;;;18.99;49.59;102489.72;5015881;28;46687;-73
2023/10/04 01:08:33;;;;;;;;;5.00;2.00;;;;;18.86;49.57;102469.41;5016710;28;45391;-72
2023/10/04 01:10:59;;;;;;;;;4.33;1.67;;;;;18.95;49.59;102495.94;5016830;28;45418;-72
2023/10/04 01:13:26;;;;;;;;;3.00;2.00;;;;;18.93;49.71;102504.78;5016999;28;45422;-72
2023/10/04 01:15:55;;;;;;;;;1.00;1.00;;;;;18.81;50.35;102505.72;5016611;28;46403;-68
2023/10/04 01:18:22;;;;;;;;;1.00;1.00;;;;;18.65;50.20;102489.84;5016138;28;45382;-72
2023/10/04 01:20:49;;;;;;;;;1.00;1.00;;;;;18.72;50.12;102505.72;5017232;28;45477;-74
2023/10/04 01:23:15;;;;;;;;;1.00;1.00;;;;;18.65;50.32;102504.91;5015532;28;45571;-73
2023/10/04 01:25:43;;;;;;;;;0.67;0.33;;;;;18.65;50.54;102500.47;5016508;28;46700;-69
2023/10/04 01:28:12;;;;;;;;;2.67;1.00;;;;;18.61;50.40;102488.09;5020347;28;45434;-70
2023/10/04 01:30:40;;;;;;;;;1.00;1.00;;;;;18.61;50.35;102479.25;5037287;28;45514;-72
2023/10/04 01:33:10;;;;;;;;;0.33;0.33;;;;;18.69;50.53;102511.94;5018706;28;45328;-69
2023/10/04 01:35:38;;;;;;;;;4.67;0.33;;;;;18.63;50.36;102488.97;5017991;28;46237;-69
2023/10/04 01:38:07;;;;;;;;;1.00;1.00;;;;;18.76;50.14;102505.75;5017093;28;45289;-71
2023/10/04 01:40:35;;;;;;;;;1.00;1.00;;;;;18.65;50.22;102488.97;5017702;28;45449;-72
2023/10/04 01:43:10;;;;;;;;;1.00;1.00;;;;;18.73;50.31;102500.44;5018048;28;45427;-71
2023/10/04 01:45:36;;;;;;;;;2.00;0.33;;;;;18.79;50.36;102504.84;5017290;28;46055;-71
2023/10/04 01:48:05;;;;;;;;;1.00;0.00;;;;;18.68;50.33;102480.09;5018737;28;45447;-71
2023/10/04 01:50:30;;;;;;;;;2.00;1.00;;;;;18.64;50.18;102465.97;5019811;28;45465;-72
2023/10/04 01:52:56;;;;;;;;;3.00;1.00;;;;;18.59;50.28;102454.47;5019731;28;45457;-74
2023/10/04 01:55:22;;;;;;;;;2.00;1.00;;;;;18.75;50.67;102482.72;5019401;28;45275;-72
2023/10/04 01:57:47;;;;;;;;;2.33;0.33;;;;;18.61;50.55;102455.34;5019131;28;45378;-74
2023/10/04 02:00:17;;;;;;;;;1.00;1.00;;;;;18.69;50.55;102469.47;5019317;28;45818;-73
2023/10/04 02:02:44;;;;;;;;;2.67;1.00;;;;;18.43;51.21;102461.59;5019817;28;45468;-73
2023/10/04 02:05:10;;;;;;;;;1.00;1.00;;;;;18.31;51.13;102451.03;5017684;28;47052;-73
2023/10/04 02:07:38;;;;;;;;;0.67;0.67;;;;;18.36;51.25;102460.72;5018654;28;45531;-74
2023/10/04 02:10:13;;;;;;;;;2.00;1.67;;;;;18.26;51.47;102435.13;5017960;28;45769;-73
2023/10/04 02:12:41;;;;;;;;;2.67;1.00;;;;;18.26;51.31;102455.47;5020251;28;45576;-73
2023/10/04 02:15:09;;;;;;;;;1.33;0.33;;;;;18.19;51.49;102433.38;5020082;28;46326;-73
2023/10/04 02:17:34;;;;;;;;;4.33;1.33;;;;;18.16;51.95;102452.84;5019612;28;45486;-75
2023/10/04 02:20:00;;;;;;;;;1.33;1.33;;;;;17.90;52.42;102452.88;5018929;28;45520;-71
2023/10/04 02:22:25;;;;;;;;;2.00;1.00;;;;;17.80;53.23;102464.34;5019624;28;45438;-72
2023/10/04 02:24:53;;;;;;;;;2.33;1.00;;;;;17.77;52.95;102472.28;5020438;28;46473;-75
2023/10/04 02:27:19;;;;;;;;;2.00;2.00;;;;;17.65;53.67;102470.50;5019284;28;45815;-74
2023/10/04 02:29:46;;;;;;;;;3.00;1.00;;;;;17.47;53.57;102455.50;5021462;28;45453;-76
2023/10/04 02:32:13;;;;;;;;;2.00;1.00;;;;;17.49;53.56;102443.16;5019404;28;45414;-75
2023/10/04 02:34:41;;;;;;;;;2.00;1.00;;;;;17.71;53.53;102473.19;5018263;28;45571;-75
2023/10/04 02:37:06;;;;;;;;;2.33;1.00;;;;;17.71;53.65;102459.06;5018280;28;45501;-74
2023/10/04 02:39:33;;;;;;;;;2.67;1.33;;;;;17.48;53.72;102420.19;5018845;28;45349;-73
2023/10/04 02:41:59;;;;;;;;;2.67;1.00;;;;;17.57;54.00;102448.44;5018913;28;45498;-71
2023/10/04 02:44:25;;;;;;;;;2.00;1.00;;;;;17.55;53.62;102435.19;5018228;28;46635;-73
2023/10/04 02:46:52;;;;;;;;;2.33;0.00;;;;;17.65;53.81;102449.31;5018228;28;45529;-74
2023/10/04 02:49:18;;;;;;;;;1.00;1.00;;;;;17.69;53.73;102464.34;5018188;28;45770;-72
2023/10/04 02:51:45;;;;;;;;;1.00;1.00;;;;;17.75;53.67;102467.00;5019862;28;45522;-73
2023/10/04 02:54:11;;;;;;;;;1.33;1.00;;;;;17.69;53.79;102459.03;5016177;28;45947;-71
2023/10/04 02:56:45;;;;;;;;;1.33;1.00;;;;;17.69;53.62;102460.81;5019423;28;45552;-73
2023/10/04 02:59:11;;;;;;;;;4.33;0.67;;;;;17.63;53.68;102466.09;5016501;28;45477;-71
2023/10/04 03:01:36;;;;;;;;;2.00;1.00;;;;;17.80;53.53;102470.56;5033761;28;45353;-73
2023/10/04 03:04:02;;;;;;;;;2.67;1.00;;;;;17.43;53.95;102427.25;5023259;28;45444;-72
2023/10/04 03:06:28;;;;;;;;;1.00;1.00;;;;;17.65;54.26;102474.94;5029829;28;45618;-71
2023/10/04 03:08:56;;;;;;;;;2.00;1.00;;;;;17.70;53.94;102489.06;5017648;28;45520;-72
2023/10/04 03:11:21;;;;;;;;;4.33;1.00;;;;;17.76;53.65;102482.00;5018057;28;45228;-71
2023/10/04 03:13:50;;;;;;;;;2.67;1.33;;;;;17.62;54.43;102483.78;5018649;28;45432;-73
2023/10/04 03:16:16;;;;;;;;;2.00;2.00;;;;;17.19;54.83;102443.13;5018137;28;45602;-72
2023/10/04 03:18:45;;;;;;;;;1.00;1.00;;;;;17.26;55.42;102474.03;5025132;28;45453;-72
2023/10/04 03:21:20;;;;;;;;;1.33;1.00;;;;;17.43;55.31;102482.00;5019891;28;45576;-71
2023/10/04 03:23:49;;;;;;;;;2.00;1.00;;;;;17.41;55.97;102487.28;5017158;28;46568;-73
2023/10/04 03:26:14;;;;;;;;;1.00;1.00;;;;;17.39;55.60;102489.03;5017518;28;45407;-72
2023/10/04 03:28:46;;;;;;;;;1.33;1.00;;;;;17.29;55.73;102492.56;5017576;28;45472;-74
2023/10/04 03:31:14;;;;;;;;;2.00;1.67;;;;;16.98;55.61;102436.88;5017862;28;45418;-71
2023/10/04 03:33:41;;;;;;;;;1.00;1.00;;;;;17.33;55.43;102470.50;5017190;28;45767;-75
2023/10/04 03:36:06;;;;;;;;;1.00;1.00;;;;;17.49;55.25;102484.66;5016403;28;45474;-73
2023/10/04 03:38:39;;;;;;;;;5.33;3.00;;;;;17.56;54.97;102479.38;5024421;28;45294;-74
2023/10/04 03:41:04;;;;;;;;;1.00;1.00;;;;;17.45;55.63;102477.59;5020441;28;45780;-72
2023/10/04 03:43:30;;;;;;;;;1.67;1.00;;;;;17.44;55.35;102467.84;5019037;28;45388;-72
2023/10/04 03:46:08;;;;;;;;;2.00;1.33;;;;;17.43;55.18;102466.09;5016989;28;45393;-74
2023/10/04 03:48:37;;;;;;;;;2.00;2.00;;;;;17.41;55.23;102471.38;5010305;28;45411;-73
2023/10/04 03:51:03;;;;;;;;;0.33;0.33;;;;;17.33;55.01;102451.97;5017485;28;45597;-73
2023/10/04 03:53:30;;;;;;;;;2.67;1.00;;;;;17.53;54.85;102475.81;5017012;28;46829;-73
2023/10/04 03:56:04;;;;;;;;;2.00;1.00;;;;;17.47;55.35;102473.19;5019054;28;45540;-74
2023/10/04 03:58:42;;;;;;;;;1.00;1.00;;;;;17.30;55.78;102466.09;5019121;28;45537;-73
2023/10/04 04:01:11;;;;;;;;;2.00;0.00;;;;;17.25;55.68;102462.56;5015674;28;45280;-73
2023/10/04 04:03:38;;;;;;;;;0.00;0.00;;;;;17.15;56.25;102458.09;5015936;28;45455;-73
2023/10/04 04:06:08;;;;;;;;;1.00;1.00;;;;;17.01;56.69;102470.41;5013476;28;45406;-72
2023/10/04 04:08:33;;;;;;;;;3.67;1.67;;;;;16.85;57.36;102458.94;5003058;28;45580;-73
2023/10/04 04:11:01;;;;;;;;;3.00;1.67;;;;;16.90;57.20;102468.63;5017430;28;45381;-73
2023/10/04 04:13:27;;;;;;;;;2.67;0.33;;;;;17.08;56.64;102469.56;5018173;28;46371;-73
2023/10/04 04:15:52;;;;;;;;;2.00;0.67;;;;;17.05;56.20;102454.56;5018692;28;45463;-73
2023/10/04 04:18:23;;;;;;;;;2.33;1.00;;;;;17.27;55.82;102476.66;5024984;28;45454;-74
2023/10/04 04:20:58;;;;;;;;;2.00;1.00;;;;;17.29;56.13;102471.38;5016939;28;45550;-73
2023/10/04 04:23:25;;;;;;;;;3.67;1.00;;;;;17.24;56.33;102475.78;5021117;28;45634;-72
2023/10/04 04:25:51;;;;;;;;;1.67;1.67;;;;;16.91;56.89;102441.28;5028767;28;45917;-72
2023/10/04 04:28:30;;;;;;;;;1.67;1.67;;;;;17.03;57.18;102477.47;5012842;28;45501;-71
2023/10/04 04:30:56;;;;;;;;;4.33;1.67;;;;;16.98;56.69;102476.59;5017831;28;45410;-71
2023/10/04 04:33:26;;;;;;;;;1.33;1.33;;;;;17.04;56.81;102471.31;5016141;28;45359;-72
2023/10/04 04:36:00;;;;;;;;;2.33;2.33;;;;;16.86;57.32;102482.72;5017836;28;45473;-72
2023/10/04 04:38:28;;;;;;;;;2.33;1.00;;;;;16.84;57.47;102488.91;5018585;28;45362;-74
2023/10/04 04:40:56;;;;;;;;;0.67;0.00;;;;;16.66;57.96;102452.66;5004373;28;45542;-72
2023/10/04 04:45:53;;;;;;;;;6.00;2.00;;;;;17.07;56.82;102483.69;5030509;28;45177;-72
2023/10/04 04:48:28;;;;;;;;;3.00;2.00;;;;;16.89;56.56;102450.09;5010754;28;45485;-73
2023/10/04 04:51:04;;;;;;;;;1.00;1.00;;;;;16.96;56.72;102451.88;5016271;28;45335;-72
2023/10/04 04:53:32;;;;;;;;;1.00;1.00;;;;;17.04;56.82;102471.31;5008810;28;45463;-72
2023/10/04 04:55:58;;;;;;;;;2.00;1.00;;;;;17.03;57.09;102476.59;5016076;28;45477;-68
2023/10/04 04:58:24;;;;;;;;;1.00;1.00;;;;;16.92;56.91;102456.28;5016594;28;45426;-70
2023/10/04 05:00:55;;;;;;;;;3.67;2.00;;;;;17.08;56.79;102481.03;5018197;28;45517;-73
2023/10/04 05:03:20;;;;;;;;;3.67;1.67;;;;;16.50;56.57;102378.50;5015478;28;46224;-73
2023/10/04 05:05:49;;;;;;;;;2.67;1.33;;;;;17.01;57.58;102476.59;5017340;28;45469;-73
2023/10/04 05:08:16;;;;;;;;;2.67;2.00;;;;;16.73;57.36;102438.56;5017514;28;45556;-70
2023/10/04 05:10:44;;;;;;;;;1.33;1.00;;;;;16.81;57.35;102463.31;5016889;28;45502;-72
2023/10/04 05:13:18;;;;;;;;;3.33;1.00;;;;;16.77;57.26;102448.25;5015394;28;47577;-71
2023/10/04 05:15:45;;;;;;;;;1.00;1.00;;;;;16.25;57.50;102395.13;5017451;28;45400;-73
2023/10/04 05:18:15;;;;;;;;;4.33;2.33;;;;;16.37;57.72;102412.81;5016037;28;45364;-74
2023/10/04 05:20:54;;;;;;;;;3.00;2.00;;;;;16.58;58.00;102457.88;5015701;28;45471;-73
2023/10/04 05:23:24;;;;;;;;;2.33;2.00;;;;;16.54;58.06;102456.13;5019241;28;45967;-73
2023/10/04 05:25:51;;;;;;;;;6.33;1.67;;;;;16.59;57.88;102459.66;5020482;28;45548;-73
2023/10/04 05:28:18;;;;;;;;;2.00;2.00;;;;;16.69;58.02;102492.34;5019170;28;45488;-72
2023/10/04 05:30:45;;;;;;;;;5.00;2.00;;;;;16.59;58.38;102494.06;5017954;28;45441;-73
2023/10/04 05:33:17;;;;;;;;;3.33;3.00;;;;;16.49;58.17;102487.84;5019555;28;45363;-72
2023/10/04 05:35:44;;;;;;;;;4.00;2.00;;;;;16.62;58.25;102491.41;5017971;28;45454;-73
2023/10/04 05:38:11;;;;;;;;;2.33;2.33;;;;;16.42;57.80;102445.47;5019156;28;45457;-75
2023/10/04 05:40:39;;;;;;;;;2.00;2.00;;;;;16.80;57.82;102495.94;5020737;28;45469;-74
2023/10/04 05:43:08;;;;;;;;;3.00;3.00;;;;;16.83;57.41;102495.97;5019631;28;45522;-72
2023/10/04 05:45:34;;;;;;;;;5.67;2.33;;;;;16.65;57.95;102483.47;5018029;28;45523;-73
2023/10/04 05:48:00;;;;;;;;;3.67;2.00;;;;;16.36;58.06;102463.94;5021321;28;45433;-73
2023/10/04 05:50:27;;;;;;;;;5.00;2.33;;;;;16.37;58.44;102460.41;5021216;28;45284;-74
2023/10/04 05:52:54;;;;;;;;;3.33;2.33;;;;;16.32;58.72;102476.25;5018103;28;47692;-73
2023/10/04 05:55:23;;;;;;;;;5.67;2.00;;;;;16.14;58.64;102439.16;5019112;28;45610;-73
2023/10/04 05:57:50;;;;;;;;;4.00;1.00;;;;;16.37;58.60;102471.00;5012220;28;45594;-71
2023/10/04 06:03:01;;;;;;;;;4.00;3.00;;;;;15.99;57.90;102382.69;5020668;28;45845;-75
2023/10/04 06:05:27;;;;;;;;;2.00;2.00;;;;;16.75;58.02;102493.25;5020646;28;45324;-69
2023/10/04 06:07:55;;;;;;;;;3.00;2.00;;;;;16.46;57.53;102436.66;5020211;28;45309;-72
2023/10/04 06:10:24;;;;;;;;;1.00;0.33;;;;;16.81;57.34;102484.47;5017846;28;45548;-75
2023/10/04 06:12:55;;;;;;;;;6.00;4.00;;;;;16.81;57.45;102473.91;5020156;28;45598;-73
2023/10/04 06:15:24;;;;;;;;;2.33;2.33;;;;;16.75;56.87;102444.72;5016965;28;45411;-72
2023/10/04 06:17:51;;;;;;;;;6.67;4.33;;;;;16.58;56.00;102398.81;5019155;28;45406;-72
2023/10/04 06:20:23;;;;;;;;;3.33;3.00;;;;;16.66;56.27;102405.03;5017364;28;45381;-72
2023/10/04 06:22:56;;;;;;;;;4.67;2.00;;;;;17.23;55.84;102493.44;5018476;28;45639;-73
2023/10/04 06:25:26;;;;;;;;;4.67;4.00;;;;;16.92;55.92;102427.19;5016823;28;45396;-71
2023/10/04 06:27:54;;;;;;;;;6.00;5.00;;;;;17.43;55.27;102503.19;5018742;28;45340;-72
2023/10/04 06:30:22;;;;;;;;;5.67;4.00;;;;;17.42;54.98;102489.06;5018697;28;45489;-71
2023/10/04 06:32:52;;;;;;;;;4.33;3.67;;;;;17.56;54.77;102497.91;5020335;28;46163;-72
2023/10/04 06:35:25;;;;;;;;;7.33;4.00;;;;;17.55;55.50;102480.22;5018321;28;45510;-74
2023/10/04 06:37:56;;;;;;;;;1.67;1.67;;;;;17.71;54.80;102512.06;5019855;28;45358;-71
2023/10/04 06:40:24;;;;;;;;;4.00;4.00;;;;;17.73;55.95;102508.53;5018389;28;45480;-71
2023/10/04 06:42:55;;;;;;;;;5.00;2.67;;;;;17.75;54.48;102492.63;5018126;28;45445;-74
2023/10/04 06:45:26;;;;;;;;;5.67;3.00;;;;;17.90;53.67;102512.97;5016891;28;45422;-72
2023/10/04 06:47:53;;;;;;;;;8.00;2.00;;;;;17.93;53.73;102524.44;5018327;28;45398;-72
2023/10/04 06:50:44;;;;;;;;;5.00;3.00;;;;;18.00;53.45;102518.25;5016696;28;45312;-72
2023/10/04 06:53:09;;;;;;;;;6.00;3.00;;;;;17.39;52.99;102404.28;5012019;28;46575;-73
2023/10/04 06:55:37;;;;;;;;;3.33;2.67;;;;;18.15;53.03;102519.13;5018707;28;45478;-72
2023/10/04 06:58:03;;;;;;;;;6.33;4.33;;;;;18.17;52.74;102530.63;5025846;28;45443;-71
2023/10/04 07:00:30;;;;;;;;;6.33;4.33;;;;;18.21;53.01;102517.34;5020722;28;45438;-72
2023/10/04 07:03:01;;;;;;;;;5.33;2.67;;;;;18.19;52.96;102505.88;5016435;28;45517;-73
2023/10/04 07:05:38;;;;;;;;;4.33;3.33;;;;;18.22;52.66;102504.97;5015892;28;45604;-73
2023/10/04 07:08:13;;;;;;;;;7.00;4.00;;;;;18.32;52.56;102522.66;5014655;28;45402;-72
2023/10/04 07:10:38;;;;;;;;;6.00;4.00;;;;;18.44;52.10;102532.38;5008640;28;45410;-71
2023/10/04 07:13:06;;;;;;;;;4.33;3.67;;;;;18.48;52.02;102523.50;5018029;28;45409;-73
2023/10/04 07:15:35;;;;;;;;;4.67;4.00;;;;;18.60;51.97;102528.78;5019551;28;45815;-73
2023/10/04 07:18:09;;;;;;;;;6.00;4.33;;;;;18.70;51.79;102534.03;5019071;28;45637;-72
2023/10/04 07:20:36;;;;;;;;;5.00;4.00;;;;;18.58;51.80;102529.66;5019821;28;45451;-73
2023/10/04 07:23:05;;;;;;;;;2.67;1.33;;;;;18.46;52.33;102527.03;5018597;28;45480;-73
2023/10/04 07:25:34;;;;;;;;;3.33;3.33;;;;;18.37;52.22;102520.00;5016972;28;45548;-70
2023/10/04 07:28:02;;;;;;;;;7.00;4.33;;;;;18.51;52.16;102541.16;5021634;28;46190;-71
2023/10/04 07:30:29;;;;;;;;;8.00;3.00;;;;;17.97;51.76;102435.22;5017391;28;45298;-71
2023/10/04 07:32:55;;;;;;;;;5.67;5.00;;;;;18.63;51.78;102519.94;5018606;28;45482;-74
2023/10/04 07:35:25;;;;;;;;;4.33;4.00;;;;;18.87;51.36;102542.00;5016562;28;45412;-72
2023/10/04 07:37:53;;;;;;;;;6.33;4.33;;;;;18.94;51.22;102549.94;5021247;28;45566;-73
2023/10/04 07:40:23;;;;;;;;;6.00;5.00;;;;;18.87;51.45;102534.91;5018001;28;45334;-71
2023/10/04 07:42:59;;;;;;;;;6.33;5.00;;;;;18.99;50.88;102547.25;5015231;28;47705;-72
2023/10/04 07:45:28;;;;;;;;;9.00;4.00;;;;;18.92;50.61;102508.34;5002577;28;45356;-71
2023/10/04 07:47:54;;;;;;;;;4.67;4.00;;;;;19.34;50.58;102568.34;5016524;28;46823;-71
2023/10/04 07:50:24;;;;;;;;;5.33;4.67;;;;;19.22;50.23;102532.09;5016938;28;45469;-70
2023/10/04 07:52:55;;;;;;;;;6.67;3.00;;;;;19.49;50.12;102559.41;5004064;28;46433;-70
2023/10/04 07:55:22;;;;;;;;;6.33;4.33;;;;;19.59;49.74;102577.03;5018681;28;45413;-71
2023/10/04 07:57:49;;;;;;;;;8.67;6.67;;;;;19.48;49.99;102569.16;5015490;28;45550;-73
2023/10/04 08:00:17;;;;;;;;;5.67;2.67;;;;;19.60;49.93;102568.19;5009533;28;45878;-71
2023/10/04 08:02:50;;;;;;;;;3.33;2.67;;;;;19.59;50.10;102586.78;5018234;28;45782;-72
2023/10/04 08:05:19;;;;;;;;;6.00;3.33;;;;;19.54;50.07;102567.34;5017138;28;45527;-71
2023/10/04 08:07:52;;;;;;;;;9.67;6.00;;;;;19.67;49.58;102584.97;5016763;28;45793;-69
2023/10/04 08:10:23;;;;;;;;;8.00;6.00;;;;;19.59;49.71;102565.53;5008617;28;45450;-68
2023/10/04 08:12:54;;;;;;;;;10.00;7.00;;;;;19.75;49.35;102588.50;5011516;28;45762;-69
2023/10/04 08:15:27;;;;;;;;;5.50;5.50;;;;;19.67;49.71;102564.59;5030692;28;45576;-74
2023/10/04 08:17:56;;;;;;;;;7.67;5.33;;;;;19.36;49.73;102517.84;5015304;28;45531;-75
2023/10/04 08:20:24;;;;;;;;;6.33;4.33;;;;;19.75;49.92;102596.47;5016415;28;45605;-71
2023/10/04 08:22:50;;;;;;;;;5.67;4.33;;;;;19.69;49.70;102576.16;5015948;28;46097;-74
2023/10/04 08:25:27;;;;;;;;;7.33;5.33;;;;;19.77;49.89;102586.72;5020601;28;45576;-71
2023/10/04 08:27:53;;;;;;;;;8.00;5.67;;;;;19.61;49.95;102577.03;5026352;28;45518;-73
2023/10/04 08:30:20;;;;;;;;;5.67;5.33;;;;;19.57;50.33;102578.81;5016867;28;45322;-71
2023/10/04 08:32:51;;;;;;;;;8.33;6.00;;;;;19.60;50.31;102580.56;5015832;28;46741;-72
2023/10/04 08:35:33;;;;;;;;;9.33;3.00;;;;;19.49;50.70;102568.25;5015206;28;45387;-71
2023/10/04 08:38:04;;;;;;;;;8.33;4.33;;;;;19.48;50.72;102560.28;5015243;28;45550;-68
2023/10/04 08:40:30;;;;;;;;;10.00;5.33;;;;;18.77;50.62;102459.75;5011549;28;45838;-71
2023/10/04 08:43:00;;;;;;;;;11.00;9.00;;;;;19.33;50.69;102540.00;5015575;28;45832;-74
2023/10/04 08:45:33;;;;;;;;;9.00;5.00;;;;;19.27;51.00;102577.25;5018341;28;45831;-68
2023/10/04 08:48:00;;;;;;;;;7.00;4.33;;;;;19.21;51.04;102578.13;5015171;28;45781;-69
2023/10/04 08:50:40;;;;;;;;;10.33;5.00;;;;;19.09;51.75;102566.69;5014543;28;45458;-68
2023/10/04 08:53:40;;;;;;;;;9.00;5.00;;;;;19.04;51.79;102570.25;5005330;28;47174;-70
2023/10/04 08:56:11;;;;;;;;;9.00;7.33;;;;;18.90;51.87;102544.63;5017446;28;45539;-70
2023/10/04 08:58:40;;;;;;;;;4.00;4.00;;;;;19.09;51.76;102580.84;5020713;28;45580;-69
2023/10/04 09:01:08;;;;;;;;;6.33;4.00;;;;;19.30;51.65;102579.88;5020957;28;45404;-70
2023/10/04 09:03:36;;;;;;;;;8.67;5.67;;;;;19.44;51.60;102588.66;5002659;28;46488;-69
2023/10/04 09:06:05;;;;;;;;;6.33;5.33;;;;;19.44;51.09;102571.84;5016566;28;46738;-69
2023/10/04 09:08:31;;;;;;;;;4.00;3.67;;;;;19.48;50.87;102555.88;5017688;28;45640;-69
2023/10/04 09:10:58;;;;;;;;;10.00;5.00;;;;;19.82;50.47;102592.00;5017227;28;45500;-69
2023/10/04 09:13:27;;;;;;;;;3.33;3.33;;;;;19.95;49.88;102583.03;5018940;28;46045;-68
2023/10/04 09:15:53;;;;;;;;;7.00;5.00;;;;;19.82;49.93;102541.47;5018773;28;45448;-69
2023/10/04 09:18:27;;;;;;;;;7.00;5.00;;;;;19.83;50.07;102548.56;5019203;28;45593;-69
2023/10/04 09:20:53;;;;;;;;;6.33;6.00;;;;;19.86;50.16;102562.72;5018228;28;45548;-69
2023/10/04 09:23:22;;;;;;;;;7.67;6.33;;;;;19.66;50.40;102568.13;5017806;28;46861;-71
2023/10/04 09:25:48;;;;;;;;;9.33;4.67;;;;;19.55;50.78;102563.78;5019000;28;45529;-71
2023/10/04 09:28:14;;;;;;;;;7.33;5.00;;;;;19.40;50.64;102504.53;5017623;28;45469;-70
2023/10/04 09:30:40;;;;;;;;;6.67;6.00;;;;;20.14;49.90;102586.41;5018654;28;45529;-70
2023/10/04 09:33:28;;;;;;;;;6.33;4.33;;;;;20.33;49.44;102577.41;5017805;28;45524;-71
2023/10/04 09:35:55;;;;;;;;;7.33;4.33;;;;;20.46;49.01;102562.19;5011235;28;45624;-71
2023/10/04 09:38:22;;;;;;;;;8.00;4.67;;;;;20.49;49.29;102550.63;5019800;28;45367;-72
2023/10/04 09:40:59;;;;;;;;;4.00;3.67;;;;;20.88;48.83;102578.63;5017952;28;45834;-71
2023/10/04 09:43:39;;;;;;;;;5.67;4.00;;;;;20.84;48.45;102549.38;5017744;28;46189;-67
2023/10/04 09:46:10;;;;;;;;;4.00;3.00;;;;;20.80;48.14;102518.34;5013328;28;45631;-72
2023/10/04 09:48:46;;;;;;;;;10.00;4.00;;;;;20.75;47.30;102479.34;5017898;28;45457;-71
2023/10/04 09:51:12;;;;;;;;;5.33;5.00;;;;;20.86;47.05;102510.31;5016140;28;45444;-71
2023/10/04 09:53:41;;;;;;;;;3.67;3.33;;;;;20.97;47.21;102556.31;5016585;28;45482;-69
2023/10/04 09:56:11;;;;;;;;;4.33;4.00;;;;;20.67;47.47;102522.97;5016041;28;45605;-69
2023/10/04 09:58:51;;;;;;;;;4.00;2.67;;;;;21.17;47.01;102566.72;5018584;28;45398;-70
2023/10/04 10:01:22;;;;;;;;;6.00;2.67;;;;;21.30;46.33;102548.78;5017399;28;45375;-69
2023/10/04 10:04:07;;;;;;;;;5.00;3.67;;;;;21.47;45.94;102548.56;5013670;28;47017;-68
2023/10/04 10:06:45;;;;;;;;;6.00;3.00;;;;;21.47;45.72;102553.88;5011385;28;45509;-69
2023/10/04 10:09:18;;;;;;;;;4.67;2.67;;;;;20.94;45.42;102448.03;5013831;28;45469;-70
2023/10/04 10:11:46;;;;;;;;;6.00;3.00;;;;;21.87;45.67;102558.59;5013143;28;45940;-69
2023/10/04 10:14:14;;;;;;;;;4.67;4.00;;;;;22.19;44.46;102566.97;5015134;28;45625;-69
2023/10/04 10:16:42;;;;;;;;;3.00;2.67;;;;;22.12;43.79;102549.28;5014677;28;45721;-70
2023/10/04 10:19:09;;;;;;;;;3.67;2.00;;;;;22.25;43.80;102549.97;5015499;28;45462;-69
2023/10/04 10:22:11;;;;;;;;;2.33;2.33;;;;;22.54;43.25;102548.53;5009724;28;45608;-71
2023/10/04 10:24:51;;;;;;;;;4.67;3.00;;;;;22.59;42.59;102514.63;5011009;28;46641;-69
2023/10/04 10:27:20;;;;;;;;;2.67;2.67;;;;;22.58;41.91;102499.53;5012906;28;45724;-70
2023/10/04 10:29:47;;;;;;;;;2.00;1.67;;;;;22.80;41.48;102521.31;5015533;28;45604;-69
2023/10/04 10:32:20;;;;;;;;;2.67;2.67;;;;;22.77;41.68;102527.59;5014205;28;45619;-71
2023/10/04 10:34:49;;;;;;;;;3.33;2.00;;;;;22.82;41.45;102476.75;5015597;28;45617;-71
2023/10/04 10:37:23;;;;;;;;;3.33;2.00;;;;;23.89;40.44;102545.63;5031058;28;45456;-71
2023/10/04 10:39:51;;;;;;;;;3.00;2.00;;;;;24.08;38.87;102512.13;5015771;28;45900;-69
2023/10/04 10:42:18;;;;;;;;;2.50;2.50;;;;;24.33;38.51;102508.78;5029369;28;45418;-69
2023/10/04 10:44:44;;;;;;;;;3.00;3.00;;;;;24.89;38.04;102541.16;5016758;28;45526;-70
2023/10/04 10:47:26;;;;;;;;;3.75;2.25;;;;;25.32;37.15;102547.91;5015620;28;45770;-70
2023/10/04 10:50:07;;;;;;;;;4.75;3.25;;;;;24.68;36.74;102464.09;5014138;28;45469;-71
2023/10/04 10:52:38;;;;;;;;;4.00;2.25;;;;;24.42;37.74;102448.75;5013768;28;45921;-73
2023/10/04 10:55:14;;;;;;;;;5.00;2.00;;;;;24.67;37.63;102432.84;5028001;28;45614;-72
2023/10/04 10:57:43;;;;;;;;;4.00;2.50;;;;;24.90;37.59;102467.84;5016680;28;45500;-70
2023/10/04 11:02:45;;;;;;;;;3.00;3.00;;;;;24.81;38.08;102523.53;5004671;28;45446;-73
2023/10/04 11:05:16;;;;;;;;;7.25;5.00;;;;;25.22;37.43;102522.28;5016929;28;46930;-76
2023/10/04 11:07:42;;;;;;;;;4.25;2.00;;;;;25.17;37.50;102506.34;5018629;28;45611;-72
2023/10/04 11:10:08;;;;;;;;;5.50;2.25;;;;;25.74;36.82;102498.28;5019042;28;45553;-77
2023/10/04 11:12:37;;;;;;;;;3.25;3.00;;;;;26.14;36.14;102487.03;5018935;28;45453;-75
2023/10/04 11:15:06;;;;;;;;;4.25;4.00;;;;;26.59;35.54;102478.25;5015873;28;46327;-74
2023/10/04 11:17:33;;;;;;;;;3.50;3.50;;;;;27.12;36.22;102500.44;5016757;28;45397;-72
2023/10/04 11:19:58;;;;;;;;;4.25;3.75;;;;;27.35;35.12;102473.50;5019762;28;45299;-74
2023/10/04 11:22:31;;;;;;;;;3.75;3.75;;;;;27.37;33.46;102495.84;5018862;28;45333;-73
2023/10/04 11:24:56;;;;;;;;;3.00;2.50;;;;;26.98;34.83;102498.28;5017942;28;45554;-73
2023/10/04 11:27:23;;;;;;;;;8.50;3.50;;;;;26.77;35.58;102491.97;5018052;28;45415;-72
2023/10/04 11:29:50;;;;;;;;;5.25;3.75;;;;;26.60;35.74;102497.94;5017353;28;45529;-70
2023/10/04 11:32:17;;;;;;;;;7.50;3.00;;;;;25.98;36.93;102496.56;5004432;28;45578;-73
2023/10/04 11:34:44;;;;;;;;;8.50;4.00;;;;;26.64;36.43;102488.84;5018344;28;45327;-71
2023/10/04 11:37:14;;;;;;;;;4.25;4.25;;;;;27.68;33.75;102489.19;5016628;28;45501;-72
2023/10/04 11:39:41;;;;;;;;;5.75;5.75;;;;;27.80;31.71;102432.13;5017490;28;45312;-72
2023/10/04 11:42:17;;;;;;;;;3.75;2.75;;;;;28.48;30.92;102477.66;5016991;28;45369;-71